Time;durP1;ratioP1;P1;durP2;ratioP2;P2;SDS_P1;SDS_P2;PMS_P1;PMS_P2;Temp;Humidity;BMP_temperature;BMP_pressure;BME280_temperature;BME280_humidity;BME280_pressure;Samples;Min_cycle;Max_cycle;Signal;HPM_P1;HPM_P2
2024/01/18 00:01:09;;;;;;;7.13;2.22;;;-1.80;99.90;;;;;;5019749;28;20042;-72
2024/01/18 00:03:39;;;;;;;2.30;2.10;;;-1.80;99.90;;;;;;5012072;28;20041;-72
2024/01/18 00:06:05;;;;;;;2.63;1.73;;;-1.80;99.90;;;;;;5012679;28;20038;-72
2024/01/18 00:08:31;;;;;;;1.20;1.05;;;-1.80;99.90;;;;;;5011739;28;20045;-72
2024/01/18 00:10:57;;;;;;;2.05;1.42;;;-1.90;99.90;;;;;;5012151;28;20045;-73
2024/01/18 00:13:23;;;;;;;1.92;1.33;;;-1.90;99.90;;;;;;5011525;28;20042;-72
2024/01/18 00:15:48;;;;;;;0.82;0.82;;;-1.90;99.90;;;;;;5005452;28;20121;-72
2024/01/18 00:18:14;;;;;;;1.92;1.77;;;-1.90;99.90;;;;;;5011928;28;20045;-72
2024/01/18 00:20:40;;;;;;;2.95;1.20;;;-1.90;99.90;;;;;;5011271;28;20036;-72
2024/01/18 00:23:06;;;;;;;2.65;2.42;;;-1.90;99.90;;;;;;5011355;28;20486;-72
2024/01/18 00:25:31;;;;;;;1.60;1.27;;;-1.90;99.90;;;;;;5010720;28;20342;-72
2024/01/18 00:27:57;;;;;;;1.48;0.45;;;-1.90;99.90;;;;;;5009596;28;20041;-72
2024/01/18 00:30:23;;;;;;;1.88;1.13;;;-1.90;99.90;;;;;;5012882;28;20128;-72
2024/01/18 00:32:48;;;;;;;2.53;1.98;;;-1.80;99.90;;;;;;5013923;28;20511;-72
2024/01/18 00:35:14;;;;;;;1.33;1.02;;;-1.80;99.90;;;;;;5008220;28;20037;-72
2024/01/18 00:37:40;;;;;;;2.20;1.15;;;-1.80;99.90;;;;;;5008735;28;20075;-72
2024/01/18 00:40:06;;;;;;;0.77;0.73;;;-1.90;99.90;;;;;;5012316;28;20120;-72
2024/01/18 00:42:32;;;;;;;1.00;0.90;;;-1.90;99.90;;;;;;5010806;28;20053;-72
2024/01/18 00:44:58;;;;;;;2.97;1.30;;;-1.80;99.90;;;;;;5016776;28;20492;-72
2024/01/18 00:47:24;;;;;;;2.80;1.13;;;-1.90;99.90;;;;;;5028631;28;20986;-72
2024/01/18 00:49:49;;;;;;;1.55;0.65;;;-1.90;99.90;;;;;;5010495;28;20521;-72
2024/01/18 00:52:15;;;;;;;1.75;1.45;;;-1.90;99.90;;;;;;5008245;28;20253;-72
2024/01/18 00:54:41;;;;;;;0.52;0.52;;;-1.90;99.90;;;;;;4998049;28;20063;-72
2024/01/18 00:57:06;;;;;;;3.13;1.05;;;-1.90;99.90;;;;;;5010763;28;20045;-72
2024/01/18 00:59:32;;;;;;;1.48;0.63;;;-1.90;99.90;;;;;;5018956;28;20045;-72
2024/01/18 01:01:58;;;;;;;1.05;0.75;;;-1.90;99.90;;;;;;5006618;28;20087;-72
2024/01/18 01:04:23;;;;;;;0.73;0.70;;;-1.90;99.90;;;;;;5010379;28;20059;-72
2024/01/18 01:06:49;;;;;;;1.92;1.02;;;-1.90;99.90;;;;;;5016733;28;20044;-72
2024/01/18 01:09:15;;;;;;;2.10;1.50;;;-1.90;99.90;;;;;;5010503;28;20665;-72
2024/01/18 01:11:40;;;;;;;1.42;0.45;;;-1.90;99.90;;;;;;5008007;28;20041;-71
2024/01/18 01:14:06;;;;;;;0.95;0.88;;;-1.80;99.90;;;;;;5008887;28;20119;-72
2024/01/18 01:16:32;;;;;;;0.88;0.65;;;-1.90;99.90;;;;;;5011153;28;20557;-72
2024/01/18 01:18:58;;;;;;;4.70;1.35;;;-1.90;99.90;;;;;;5010489;28;20060;-72
2024/01/18 01:21:23;;;;;;;0.93;0.80;;;-1.90;99.90;;;;;;5011462;28;20169;-72
2024/01/18 01:23:51;;;;;;;1.02;0.93;;;-2.00;99.90;;;;;;5008307;28;20045;-72
2024/01/18 01:26:17;;;;;;;1.13;0.85;;;-2.00;99.90;;;;;;5010334;28;20044;-72
2024/01/18 01:28:43;;;;;;;0.63;0.63;;;-2.00;99.90;;;;;;5010245;28;20124;-72
2024/01/18 01:31:09;;;;;;;0.90;0.90;;;-2.10;99.90;;;;;;5011662;28;20063;-72
2024/01/18 01:33:35;;;;;;;1.40;1.02;;;-2.10;99.90;;;;;;5010169;28;20090;-71
2024/01/18 01:36:02;;;;;;;0.68;0.50;;;-2.10;99.90;;;;;;5010851;28;20492;-72
2024/01/18 01:38:28;;;;;;;2.15;1.33;;;-2.10;99.90;;;;;;5008937;28;20400;-71
2024/01/18 01:40:54;;;;;;;1.85;0.77;;;-2.10;99.90;;;;;;5010770;28;20084;-71
2024/01/18 01:43:20;;;;;;;0.70;0.70;;;-2.10;99.90;;;;;;5009631;28;20064;-72
2024/01/18 01:45:46;;;;;;;0.47;0.43;;;-2.10;99.90;;;;;;5012217;28;20058;-71
2024/01/18 01:48:12;;;;;;;0.95;0.95;;;-2.10;99.90;;;;;;5009328;28;20087;-71
2024/01/18 01:50:39;;;;;;;0.68;0.68;;;-2.20;99.90;;;;;;4995281;28;20374;-71
2024/01/18 01:53:07;;;;;;;2.13;0.50;;;-2.20;99.90;;;;;;5009117;28;20073;-69
2024/01/18 01:55:33;;;;;;;0.75;0.55;;;-2.20;99.90;;;;;;5011241;28;20045;-70
2024/01/18 01:57:59;;;;;;;1.02;0.50;;;-2.20;99.90;;;;;;5017891;28;20041;-70
2024/01/18 02:00:25;;;;;;;0.43;0.43;;;-2.30;99.90;;;;;;5027383;28;20057;-70
2024/01/18 02:02:51;;;;;;;1.27;1.17;;;-2.30;99.90;;;;;;5010645;28;20248;-70
2024/01/18 02:05:18;;;;;;;1.17;0.50;;;-2.30;99.90;;;;;;5025153;28;20050;-70
2024/01/18 02:07:45;;;;;;;0.60;0.52;;;-2.30;99.90;;;;;;5009393;28;20527;-70
2024/01/18 02:10:11;;;;;;;0.90;0.63;;;-2.40;99.90;;;;;;5010027;28;20120;-70
2024/01/18 02:12:39;;;;;;;1.52;1.05;;;-2.40;99.90;;;;;;5010665;28;20120;-70
2024/01/18 02:15:05;;;;;;;0.85;0.52;;;-2.40;99.90;;;;;;4989024;28;20104;-70
2024/01/18 02:17:31;;;;;;;0.40;0.40;;;-2.40;99.90;;;;;;5007950;28;20559;-70
2024/01/18 02:19:57;;;;;;;3.13;0.45;;;-2.50;99.90;;;;;;5008813;28;20045;-70
2024/01/18 02:22:26;;;;;;;1.67;0.85;;;-2.40;99.90;;;;;;5009454;28;20095;-70
2024/01/18 02:24:58;;;;;;;0.60;0.60;;;-2.40;99.90;;;;;;5009279;28;20046;-70
2024/01/18 02:27:24;;;;;;;2.35;0.82;;;-2.50;99.90;;;;;;5010201;28;20140;-70
2024/01/18 02:29:52;;;;;;;0.95;0.57;;;-2.50;99.90;;;;;;5014684;28;20456;-70
2024/01/18 02:32:17;;;;;;;1.33;0.73;;;-2.50;99.90;;;;;;5008578;28;20559;-70
2024/01/18 02:34:43;;;;;;;0.63;0.60;;;-2.40;99.90;;;;;;5010834;28;20042;-70
2024/01/18 02:37:10;;;;;;;0.68;0.68;;;-2.60;99.90;;;;;;5009599;28;20041;-70
2024/01/18 02:39:36;;;;;;;0.98;0.50;;;-2.60;99.90;;;;;;5009820;28;20129;-70
2024/01/18 02:42:05;;;;;;;2.45;0.65;;;-2.70;99.90;;;;;;5011401;28;20120;-71
2024/01/18 02:44:31;;;;;;;0.73;0.40;;;-2.70;99.90;;;;;;5010924;28;20128;-71
2024/01/18 02:46:57;;;;;;;2.38;1.23;;;-2.70;99.90;;;;;;5004621;28;20045;-70
2024/01/18 02:49:22;;;;;;;2.03;1.00;;;-2.60;99.90;;;;;;5006983;28;20065;-70
2024/01/18 02:51:48;;;;;;;0.52;0.35;;;-2.60;99.90;;;;;;5010676;28;20370;-70
2024/01/18 02:54:14;;;;;;;0.68;0.47;;;-2.60;99.90;;;;;;4997245;28;20112;-70
2024/01/18 02:56:40;;;;;;;0.90;0.38;;;-2.60;99.90;;;;;;5010943;28;20041;-70
2024/01/18 02:59:06;;;;;;;1.02;0.65;;;-2.60;99.90;;;;;;5012072;28;20065;-70
2024/01/18 03:01:32;;;;;;;0.50;0.38;;;-2.60;99.90;;;;;;5013838;28;20119;-70
2024/01/18 03:03:57;;;;;;;0.20;0.20;;;-2.70;99.90;;;;;;5010470;28;20081;-70
2024/01/18 03:06:23;;;;;;;0.22;0.20;;;-2.60;99.90;;;;;;5012717;28;20504;-70
2024/01/18 03:08:49;;;;;;;0.63;0.32;;;-2.70;99.90;;;;;;5013082;28;20033;-70
2024/01/18 03:11:15;;;;;;;9.50;1.13;;;-2.70;99.90;;;;;;5030323;28;20072;-70
2024/01/18 03:13:41;;;;;;;0.10;0.10;;;-2.70;99.90;;;;;;5014210;28;20041;-70
2024/01/18 03:16:08;;;;;;;3.45;0.82;;;-2.70;99.90;;;;;;5012922;28;20037;-70
2024/01/18 03:18:34;;;;;;;5.57;0.77;;;-2.70;99.90;;;;;;5008440;28;20469;-70
2024/01/18 03:21:04;;;;;;;1.95;1.13;;;-2.70;99.90;;;;;;5010525;28;20048;-70
2024/01/18 03:23:29;;;;;;;0.35;0.35;;;-2.70;99.90;;;;;;5011397;28;20052;-70
2024/01/18 03:25:55;;;;;;;0.25;0.25;;;-2.60;99.90;;;;;;5012567;28;20045;-70
2024/01/18 03:28:21;;;;;;;1.02;0.43;;;-2.70;99.90;;;;;;5017665;28;20060;-70
2024/01/18 03:30:46;;;;;;;0.20;0.20;;;-2.70;99.90;;;;;;5012674;28;20175;-70
2024/01/18 03:33:12;;;;;;;2.28;0.30;;;-2.80;99.90;;;;;;5010974;28;20124;-70
2024/01/18 03:35:38;;;;;;;0.45;0.20;;;-2.80;99.90;;;;;;5012830;28;20041;-70
2024/01/18 03:38:04;;;;;;;0.35;0.20;;;-2.80;99.90;;;;;;5014327;28;20441;-70
2024/01/18 03:40:29;;;;;;;1.15;1.02;;;-2.90;99.90;;;;;;5011690;28;20120;-70
2024/01/18 03:42:55;;;;;;;1.95;0.68;;;-2.90;99.90;;;;;;5028408;28;20050;-70
2024/01/18 03:45:21;;;;;;;0.52;0.32;;;-3.00;99.90;;;;;;5012221;28;20406;-70
2024/01/18 03:47:47;;;;;;;0.40;0.40;;;-3.00;99.90;;;;;;5013435;28;20047;-70
2024/01/18 03:50:12;;;;;;;0.80;0.45;;;-3.00;99.90;;;;;;5012658;28;20116;-69
2024/01/18 03:52:38;;;;;;;1.48;0.40;;;-3.00;99.90;;;;;;5024764;28;20034;-70
2024/01/18 03:55:05;;;;;;;0.88;0.75;;;-3.10;99.90;;;;;;5013140;28;20037;-70
2024/01/18 03:57:31;;;;;;;2.88;0.70;;;-3.10;99.90;;;;;;5017012;28;20135;-70
2024/01/18 03:59:57;;;;;;;0.88;0.75;;;-3.10;99.90;;;;;;5014937;28;20084;-70
2024/01/18 04:02:22;;;;;;;0.75;0.60;;;-3.00;99.90;;;;;;5012614;28;20143;-70
2024/01/18 04:04:48;;;;;;;1.65;0.52;;;-3.10;99.90;;;;;;5012393;28;20037;-70
2024/01/18 04:07:15;;;;;;;0.70;0.43;;;-3.10;99.90;;;;;;5011529;28;20334;-70
2024/01/18 04:09:40;;;;;;;1.10;0.30;;;-3.10;99.90;;;;;;5012230;28;20473;-69
2024/01/18 04:12:07;;;;;;;1.63;0.60;;;-3.10;99.90;;;;;;5012466;28;20044;-69
2024/01/18 04:14:33;;;;;;;2.83;0.75;;;-3.10;99.90;;;;;;5013359;28;20427;-70
2024/01/18 04:16:58;;;;;;;0.50;0.50;;;-3.20;99.90;;;;;;5011039;28;20037;-69
2024/01/18 04:19:24;;;;;;;0.17;0.17;;;-3.20;99.90;;;;;;5011016;28;20416;-69
2024/01/18 04:21:50;;;;;;;0.52;0.50;;;-3.20;99.90;;;;;;5016045;28;20045;-69
2024/01/18 04:24:16;;;;;;;0.47;0.38;;;-3.20;99.90;;;;;;5012592;28;20071;-69
2024/01/18 04:26:42;;;;;;;0.20;0.20;;;-3.20;99.90;;;;;;5011727;28;20087;-70
2024/01/18 04:29:07;;;;;;;0.30;0.20;;;-3.10;99.90;;;;;;5009431;28;20579;-70
2024/01/18 04:31:33;;;;;;;0.30;0.30;;;-3.10;99.90;;;;;;5029989;28;20116;-69
2024/01/18 04:33:59;;;;;;;0.50;0.47;;;-3.10;99.90;;;;;;5012286;28;20044;-70
2024/01/18 04:36:25;;;;;;;0.75;0.40;;;-3.10;99.90;;;;;;5009901;28;20084;-69
2024/01/18 04:38:51;;;;;;;0.20;0.20;;;-3.10;99.90;;;;;;5012883;28;20087;-69
2024/01/18 04:41:17;;;;;;;1.75;0.30;;;-3.10;99.90;;;;;;5010136;28;20052;-69
2024/01/18 04:43:43;;;;;;;0.25;0.08;;;-3.10;99.90;;;;;;5008697;28;20469;-70
2024/01/18 04:46:10;;;;;;;0.30;0.30;;;-3.10;99.90;;;;;;5010854;28;20038;-69
2024/01/18 04:48:36;;;;;;;0.00;0.00;;;-3.10;99.90;;;;;;5027163;28;20033;-69
2024/01/18 04:51:03;;;;;;;0.93;0.63;;;-3.20;99.90;;;;;;5009835;28;20045;-69
2024/01/18 04:53:29;;;;;;;0.43;0.40;;;-3.10;99.90;;;;;;5010643;28;20042;-69
2024/01/18 04:55:55;;;;;;;0.05;0.00;;;-3.10;99.90;;;;;;5029776;28;20041;-69
2024/01/18 04:58:22;;;;;;;0.55;0.32;;;-3.20;99.90;;;;;;5010462;28;20084;-69
2024/01/18 05:00:47;;;;;;;0.75;0.70;;;-3.20;99.90;;;;;;5017062;28;20042;-70
2024/01/18 05:03:13;;;;;;;0.20;0.15;;;-3.20;99.90;;;;;;5009557;28;20116;-69
2024/01/18 05:05:40;;;;;;;0.38;0.30;;;-3.20;99.90;;;;;;5011274;28;20045;-69
2024/01/18 05:08:07;;;;;;;0.00;0.00;;;-3.20;99.90;;;;;;5010943;28;20042;-69
2024/01/18 05:10:33;;;;;;;0.45;0.30;;;-3.20;99.90;;;;;;5010100;28;20069;-69
2024/01/18 05:12:59;;;;;;;0.88;0.32;;;-3.20;99.90;;;;;;5011947;28;20075;-69
2024/01/18 05:15:25;;;;;;;0.68;0.40;;;-3.20;99.90;;;;;;5009476;28;20107;-69
2024/01/18 05:17:51;;;;;;;0.03;0.03;;;-3.20;99.90;;;;;;5010144;28;20095;-69
2024/01/18 05:20:17;;;;;;;0.17;0.17;;;-3.20;99.90;;;;;;5008109;28;20133;-69
2024/01/18 05:22:43;;;;;;;0.25;0.25;;;-3.20;99.90;;;;;;5020678;28;20046;-70
2024/01/18 05:25:09;;;;;;;1.02;0.85;;;-3.20;99.90;;;;;;5027660;28;20042;-70
2024/01/18 05:27:34;;;;;;;0.50;0.50;;;-3.20;99.90;;;;;;5027249;28;20037;-69
2024/01/18 05:30:00;;;;;;;0.70;0.47;;;-3.20;99.90;;;;;;5010751;28;20053;-70
2024/01/18 05:32:26;;;;;;;0.20;0.20;;;-3.20;99.90;;;;;;5008811;28;20037;-69
2024/01/18 05:34:52;;;;;;;0.60;0.45;;;-3.20;99.90;;;;;;5028570;28;20092;-70
2024/01/18 05:37:22;;;;;;;0.10;0.10;;;-3.20;99.90;;;;;;5008811;28;20116;-70
2024/01/18 05:39:50;;;;;;;1.35;0.45;;;-3.20;99.90;;;;;;4999710;28;20125;-69
2024/01/18 05:42:18;;;;;;;0.10;0.10;;;-3.30;99.90;;;;;;5010120;28;20370;-69
2024/01/18 05:44:45;;;;;;;0.35;0.35;;;-3.30;99.90;;;;;;5009969;28;20120;-69
2024/01/18 05:47:11;;;;;;;0.57;0.45;;;-3.30;99.90;;;;;;5009027;28;20103;-68
2024/01/18 05:49:37;;;;;;;0.20;0.10;;;-3.40;99.90;;;;;;5028678;28;20076;-69
2024/01/18 05:52:03;;;;;;;0.00;0.00;;;-3.30;99.90;;;;;;5027167;28;20087;-69
2024/01/18 05:54:29;;;;;;;0.10;0.10;;;-3.40;99.90;;;;;;5010110;28;20160;-70
2024/01/18 05:56:54;;;;;;;2.38;0.88;;;-3.40;99.90;;;;;;5027366;28;20045;-69
2024/01/18 05:59:20;;;;;;;0.95;0.20;;;-3.50;99.90;;;;;;5025333;28;20146;-70
2024/01/18 06:01:46;;;;;;;0.00;0.00;;;-3.40;99.90;;;;;;5027987;28;20037;-69
2024/01/18 06:04:11;;;;;;;0.35;0.28;;;-3.50;99.90;;;;;;5007742;28;20049;-69
2024/01/18 06:06:37;;;;;;;0.00;0.00;;;-3.50;99.90;;;;;;5009044;28;20527;-68
2024/01/18 06:09:03;;;;;;;0.20;0.17;;;-3.50;99.90;;;;;;5005932;28;20037;-69
2024/01/18 06:11:29;;;;;;;0.32;0.32;;;-3.40;99.90;;;;;;5008061;28;20041;-69
2024/01/18 06:13:54;;;;;;;0.10;0.10;;;-3.40;99.90;;;;;;5008600;28;20041;-68
2024/01/18 06:16:20;;;;;;;0.40;0.40;;;-3.40;99.90;;;;;;5022549;28;20037;-69
2024/01/18 06:18:46;;;;;;;0.57;0.17;;;-3.40;99.90;;;;;;5006918;28;20103;-69
2024/01/18 06:21:12;;;;;;;1.10;0.63;;;-3.50;99.90;;;;;;5008725;28;20117;-69
2024/01/18 06:23:39;;;;;;;0.30;0.30;;;-3.50;99.90;;;;;;5008287;28;20373;-69
2024/01/18 06:26:08;;;;;;;0.20;0.20;;;-3.50;99.90;;;;;;5007090;28;20050;-69
2024/01/18 06:28:34;;;;;;;0.50;0.30;;;-3.60;99.90;;;;;;5027068;28;20143;-70
2024/01/18 06:31:00;;;;;;;0.28;0.28;;;-3.60;99.90;;;;;;5012962;28;20180;-70
2024/01/18 06:33:26;;;;;;;0.70;0.70;;;-3.60;99.90;;;;;;5011004;28;20033;-69
2024/01/18 06:35:52;;;;;;;2.47;0.70;;;-3.60;99.90;;;;;;5023031;28;20057;-69
2024/01/18 06:38:20;;;;;;;0.08;0.08;;;-3.60;99.90;;;;;;5027996;28;20056;-69
2024/01/18 06:40:47;;;;;;;0.30;0.30;;;-3.60;99.90;;;;;;5002142;28;20146;-69
2024/01/18 06:43:13;;;;;;;0.55;0.55;;;-3.60;99.90;;;;;;5011978;28;20141;-69
2024/01/18 06:45:39;;;;;;;0.00;0.00;;;-3.60;99.90;;;;;;5002710;28;20056;-70
2024/01/18 06:48:06;;;;;;;0.50;0.45;;;-3.60;99.90;;;;;;5012827;28;20045;-70
2024/01/18 06:50:32;;;;;;;0.70;0.17;;;-3.60;99.90;;;;;;5011853;28;20042;-69
2024/01/18 06:52:59;;;;;;;0.00;0.00;;;-3.60;99.90;;;;;;5010436;28;20045;-70
2024/01/18 06:55:31;;;;;;;0.40;0.40;;;-3.60;99.90;;;;;;5009531;28;20041;-69
2024/01/18 06:58:02;;;;;;;0.22;0.20;;;-3.60;99.90;;;;;;5009572;28;20146;-70
2024/01/18 07:00:27;;;;;;;0.50;0.20;;;-3.60;99.90;;;;;;5012607;28;20540;-69
2024/01/18 07:02:53;;;;;;;0.10;0.10;;;-3.60;99.90;;;;;;5012421;28;20136;-69
2024/01/18 07:05:20;;;;;;;0.00;0.00;;;-3.70;99.90;;;;;;5013309;28;20096;-69
2024/01/18 07:07:46;;;;;;;0.20;0.20;;;-3.70;99.90;;;;;;5010715;28;20187;-70
2024/01/18 07:10:11;;;;;;;0.10;0.10;;;-3.70;99.90;;;;;;5005587;28;20511;-70
2024/01/18 07:12:37;;;;;;;0.17;0.10;;;-3.70;99.90;;;;;;5011571;28;20179;-70
2024/01/18 07:15:03;;;;;;;0.13;0.10;;;-3.70;99.90;;;;;;5025371;28;20526;-70
2024/01/18 07:17:29;;;;;;;0.22;0.22;;;-3.70;99.90;;;;;;5013020;28;20568;-70
2024/01/18 07:19:59;;;;;;;0.20;0.20;;;-3.70;99.90;;;;;;5030994;28;20132;-70
2024/01/18 07:22:26;;;;;;;0.00;0.00;;;-3.80;99.90;;;;;;5030261;28;20120;-70
2024/01/18 07:24:52;;;;;;;0.30;0.20;;;-3.80;99.90;;;;;;5012151;28;20588;-70
2024/01/18 07:27:18;;;;;;;0.00;0.00;;;-3.80;99.90;;;;;;5002670;28;20041;-70
2024/01/18 07:29:44;;;;;;;0.25;0.17;;;-3.80;99.90;;;;;;5012986;28;20138;-70
2024/01/18 07:32:10;;;;;;;0.17;0.17;;;-3.80;99.90;;;;;;5013289;28;20111;-70
2024/01/18 07:34:36;;;;;;;0.10;0.05;;;-3.80;99.90;;;;;;5013343;28;20485;-70
2024/01/18 07:37:03;;;;;;;0.63;0.25;;;-3.80;99.90;;;;;;5012718;28;20574;-70
2024/01/18 07:39:29;;;;;;;0.82;0.77;;;-3.80;99.90;;;;;;5029266;28;20621;-70
2024/01/18 07:41:55;;;;;;;1.40;1.10;;;-3.80;99.90;;;;;;5013961;28;20033;-70
2024/01/18 07:44:21;;;;;;;0.00;0.00;;;-3.80;99.90;;;;;;5008186;28;20092;-70
2024/01/18 07:46:46;;;;;;;0.28;0.20;;;-3.80;99.90;;;;;;5030684;28;20033;-70
2024/01/18 07:49:12;;;;;;;0.43;0.08;;;-3.80;99.90;;;;;;5012584;28;20037;-70
2024/01/18 07:51:38;;;;;;;0.10;0.10;;;-3.80;99.90;;;;;;5012919;28;20033;-70
2024/01/18 07:54:04;;;;;;;0.68;0.68;;;-3.80;99.90;;;;;;5011655;28;20038;-70
2024/01/18 07:56:30;;;;;;;0.22;0.13;;;-3.80;99.90;;;;;;5012703;28;20465;-71
2024/01/18 07:58:56;;;;;;;0.80;0.55;;;-3.80;99.90;;;;;;5029538;28;20521;-70
2024/01/18 08:01:22;;;;;;;0.40;0.40;;;-3.80;99.90;;;;;;5012261;28;20075;-70
2024/01/18 08:03:47;;;;;;;0.13;0.10;;;-3.80;99.90;;;;;;5012118;28;20520;-70
2024/01/18 08:06:13;;;;;;;1.38;0.15;;;-3.80;99.90;;;;;;5013005;28;20042;-70
2024/01/18 08:08:42;;;;;;;0.20;0.20;;;-3.70;99.90;;;;;;5027133;28;20555;-70
2024/01/18 08:11:12;;;;;;;0.55;0.55;;;-3.70;99.90;;;;;;5012779;28;20400;-71
2024/01/18 08:13:39;;;;;;;0.00;0.00;;;-3.60;99.90;;;;;;5010730;28;20552;-70
2024/01/18 08:16:04;;;;;;;0.25;0.25;;;-3.50;99.90;;;;;;5011789;28;20489;-70
2024/01/18 08:18:30;;;;;;;0.20;0.20;;;-3.50;99.90;;;;;;5010916;28;20045;-71
2024/01/18 08:20:56;;;;;;;0.10;0.10;;;-3.40;99.90;;;;;;5014619;28;20480;-70
2024/01/18 08:23:23;;;;;;;0.20;0.20;;;-3.40;99.90;;;;;;5018124;28;20033;-70
2024/01/18 08:25:49;;;;;;;0.30;0.30;;;-3.30;99.90;;;;;;5010582;28;20124;-71
2024/01/18 08:28:15;;;;;;;0.25;0.22;;;-3.30;99.90;;;;;;5012513;28;20393;-68
2024/01/18 08:30:41;;;;;;;0.00;0.00;;;-3.10;99.90;;;;;;5027138;28;20029;-69
2024/01/18 08:33:10;;;;;;;0.38;0.25;;;-3.00;99.90;;;;;;5011618;28;20091;-69
2024/01/18 08:35:35;;;;;;;3.40;0.52;;;-2.90;99.90;;;;;;5028206;28;20049;-69
2024/01/18 08:38:01;;;;;;;0.00;0.00;;;-2.90;99.90;;;;;;5010845;28;20042;-69
2024/01/18 08:40:27;;;;;;;0.60;0.50;;;-2.80;99.90;;;;;;5011393;28;20324;-70
2024/01/18 08:42:52;;;;;;;0.03;0.03;;;-2.70;99.90;;;;;;5017336;28;20492;-70
2024/01/18 08:45:18;;;;;;;0.00;0.00;;;-2.70;99.90;;;;;;5008090;28;20042;-70
2024/01/18 08:47:44;;;;;;;0.15;0.15;;;-2.70;99.90;;;;;;5012117;28;20033;-70
2024/01/18 08:50:10;;;;;;;2.80;0.30;;;-2.60;99.90;;;;;;5010401;28;20418;-69
2024/01/18 08:52:36;;;;;;;0.10;0.10;;;-2.60;99.90;;;;;;5027571;28;20037;-69
2024/01/18 08:55:03;;;;;;;0.05;0.05;;;-2.60;99.90;;;;;;5025879;28;20493;-70
2024/01/18 08:57:31;;;;;;;0.00;0.00;;;-2.50;99.90;;;;;;4992748;28;20041;-70
2024/01/18 08:59:56;;;;;;;2.38;0.20;;;-2.40;99.90;;;;;;5016445;28;20057;-71
2024/01/18 09:02:22;;;;;;;0.00;0.00;;;-2.30;99.90;;;;;;5011118;28;20478;-71
2024/01/18 09:04:48;;;;;;;0.00;0.00;;;-2.20;99.90;;;;;;5007805;28;20042;-71
2024/01/18 09:07:13;;;;;;;0.40;0.28;;;-2.00;99.90;;;;;;4998658;28;20064;-71
2024/01/18 09:09:39;;;;;;;0.10;0.10;;;-1.80;99.90;;;;;;5011094;28;20048;-72
2024/01/18 09:12:05;;;;;;;0.00;0.00;;;-1.70;99.90;;;;;;5027590;28;20401;-72
2024/01/18 09:14:31;;;;;;;0.00;0.00;;;-1.50;99.90;;;;;;4994767;28;20037;-73
2024/01/18 09:16:56;;;;;;;0.00;0.00;;;-1.30;99.90;;;;;;4991824;28;20041;-72
2024/01/18 09:19:22;;;;;;;0.10;0.10;;;-1.10;99.90;;;;;;5010235;28;20040;-72
2024/01/18 09:21:48;;;;;;;0.00;0.00;;;-1.10;99.90;;;;;;5029363;28;20033;-71
2024/01/18 09:24:14;;;;;;;1.88;1.10;;;-1.00;99.90;;;;;;5011873;28;20057;-72
2024/01/18 09:26:40;;;;;;;16.48;9.90;;;-0.90;99.90;;;;;;5017229;28;20857;-71
2024/01/18 09:29:05;;;;;;;0.55;0.32;;;-0.80;99.90;;;;;;5011123;28;20131;-72
2024/01/18 09:31:31;;;;;;;0.00;0.00;;;-0.80;99.90;;;;;;5010854;28;20045;-71
2024/01/18 09:33:57;;;;;;;0.00;0.00;;;-0.70;99.90;;;;;;4994846;28;20057;-73
2024/01/18 09:36:23;;;;;;;0.10;0.10;;;-0.70;99.90;;;;;;5011713;28;20135;-73
2024/01/18 09:38:49;;;;;;;0.00;0.00;;;-0.70;99.90;;;;;;5018057;28;20091;-73
2024/01/18 09:41:19;;;;;;;1.95;0.45;;;-0.60;99.90;;;;;;5022388;28;20515;-73
2024/01/18 09:43:45;;;;;;;0.30;0.15;;;-0.60;99.90;;;;;;5006056;28;20052;-72
2024/01/18 09:46:11;;;;;;;0.03;0.03;;;-0.50;99.90;;;;;;4994641;28;20075;-72
2024/01/18 09:48:38;;;;;;;0.80;0.30;;;-0.50;99.90;;;;;;5020395;28;20037;-73
2024/01/18 09:51:06;;;;;;;0.03;0.03;;;-0.50;99.90;;;;;;5018715;28;20041;-74
2024/01/18 09:53:33;;;;;;;0.65;0.13;;;-0.40;99.90;;;;;;5009943;28;20064;-74
2024/01/18 09:56:06;;;;;;;0.00;0.00;;;-0.40;99.90;;;;;;5010128;28;20046;-74
2024/01/18 09:58:32;;;;;;;0.50;0.40;;;-0.30;99.90;;;;;;5007022;28;20112;-74
2024/01/18 10:00:59;;;;;;;0.60;0.20;;;-0.20;99.90;;;;;;5011460;28;20473;-75
2024/01/18 10:03:25;;;;;;;4.85;0.45;;;-0.20;99.90;;;;;;5014535;28;20041;-75
2024/01/18 10:05:51;;;;;;;0.22;0.15;;;-0.20;99.90;;;;;;5013383;28;20053;-74
2024/01/18 10:08:17;;;;;;;0.20;0.20;;;-0.10;99.90;;;;;;5013754;28;20044;-75
2024/01/18 10:10:43;;;;;;;0.63;0.20;;;0.00;99.90;;;;;;5013113;28;20048;-75
2024/01/18 10:13:15;;;;;;;0.00;0.00;;;0.10;99.90;;;;;;5014158;28;20033;-75
2024/01/18 10:15:42;;;;;;;1.10;0.35;;;0.10;99.90;;;;;;5014713;28;20485;-76
2024/01/18 10:18:08;;;;;;;1.10;0.20;;;0.10;99.90;;;;;;5014484;28;20044;-75
2024/01/18 10:20:34;;;;;;;0.00;0.00;;;0.20;99.90;;;;;;5012447;28;20052;-76
2024/01/18 10:23:14;;;;;;;0.00;0.00;;;0.20;99.90;;;;;;5015912;28;20110;-76
2024/01/18 10:25:40;;;;;;;0.82;0.05;;;0.20;99.90;;;;;;4994812;28;20034;-76
2024/01/18 10:28:06;;;;;;;0.10;0.10;;;0.30;99.90;;;;;;5013377;28;20034;-76
2024/01/18 10:30:33;;;;;;;0.13;0.13;;;0.40;99.90;;;;;;5013655;28;20033;-76
2024/01/18 10:33:00;;;;;;;0.35;0.05;;;0.50;99.90;;;;;;5014326;28;20044;-75
2024/01/18 10:35:28;;;;;;;0.00;0.00;;;0.50;99.90;;;;;;5010415;28;20034;-77
2024/01/18 10:38:06;;;;;;;0.60;0.15;;;0.60;99.90;;;;;;5011966;28;20346;-77
2024/01/18 10:40:34;;;;;;;1.10;0.68;;;0.70;99.90;;;;;;5012817;28;20388;-77
2024/01/18 10:43:05;;;;;;;0.00;0.00;;;0.80;99.90;;;;;;4997819;28;20128;-77
2024/01/18 10:45:31;;;;;;;0.10;0.10;;;1.00;99.90;;;;;;5013148;28;20463;-77
2024/01/18 10:47:58;;;;;;;0.00;0.00;;;1.20;99.90;;;;;;5003545;28;20067;-76
2024/01/18 10:50:24;;;;;;;0.00;0.00;;;1.50;99.90;;;;;;4996443;28;20064;-76
2024/01/18 10:52:51;;;;;;;0.20;0.20;;;1.70;99.90;;;;;;5011497;28;20524;-77
2024/01/18 10:55:18;;;;;;;0.10;0.10;;;1.90;99.90;;;;;;5013714;28;20432;-76
2024/01/18 10:57:43;;;;;;;0.95;0.40;;;2.00;99.90;;;;;;5012325;28;20493;-76
2024/01/18 11:00:15;;;;;;;1.00;0.13;;;2.10;99.90;;;;;;5014088;28;20077;-76
2024/01/18 11:02:44;;;;;;;0.03;0.03;;;2.20;99.90;;;;;;5013225;28;20059;-76
2024/01/18 11:05:13;;;;;;;12.98;0.30;;;2.40;99.90;;;;;;5014615;28;20041;-76
2024/01/18 11:07:40;;;;;;;0.30;0.08;;;2.40;99.90;;;;;;5011782;28;20081;-76
2024/01/18 11:10:11;;;;;;;0.85;0.15;;;2.50;99.90;;;;;;5025671;28;20459;-77
2024/01/18 11:12:39;;;;;;;0.10;0.00;;;2.50;99.90;;;;;;5000222;28;20053;-78
2024/01/18 11:15:06;;;;;;;1.25;0.10;;;2.60;99.90;;;;;;5011992;28;20069;-76
2024/01/18 11:17:35;;;;;;;0.00;0.00;;;2.80;99.90;;;;;;5014998;28;20038;-73
2024/01/18 11:20:01;;;;;;;0.00;0.00;;;2.90;99.90;;;;;;4992557;28;20064;-75
2024/01/18 11:22:28;;;;;;;4.10;0.10;;;2.90;99.90;;;;;;5010746;28;20567;-74
2024/01/18 11:25:03;;;;;;;0.43;0.20;;;2.90;99.90;;;;;;5009872;28;20060;-74
2024/01/18 11:27:40;;;;;;;0.13;0.10;;;2.80;99.90;;;;;;5011809;28;20099;-74
2024/01/18 11:30:31;;;;;;;1.98;0.35;;;2.80;99.90;;;;;;5012124;28;20091;-73
2024/01/18 11:32:57;;;;;;;4.57;0.20;;;2.80;99.90;;;;;;5009839;28;20100;-73
2024/01/18 11:35:24;;;;;;;0.75;0.20;;;2.80;99.90;;;;;;5010799;28;20096;-73
2024/01/18 11:37:50;;;;;;;0.22;0.00;;;2.90;99.90;;;;;;5012154;28;20554;-73
2024/01/18 11:40:17;;;;;;;1.45;0.00;;;2.90;99.90;;;;;;4994772;28;20049;-73
2024/01/18 11:42:47;;;;;;;0.00;0.00;;;2.90;99.90;;;;;;5012589;28;20048;-74
2024/01/18 11:45:14;;;;;;;0.43;0.10;;;2.90;99.90;;;;;;5000268;28;20433;-74
2024/01/18 11:47:40;;;;;;;0.30;0.22;;;2.90;99.90;;;;;;5010064;28;20048;-74
2024/01/18 11:50:10;;;;;;;0.00;0.00;;;2.90;99.90;;;;;;5002809;28;20405;-75
2024/01/18 11:52:37;;;;;;;0.00;0.00;;;3.00;99.90;;;;;;5011840;28;20413;-74
2024/01/18 11:55:04;;;;;;;0.00;0.00;;;3.10;99.90;;;;;;5012976;28;20142;-75
2024/01/18 11:57:29;;;;;;;0.70;0.40;;;3.30;99.90;;;;;;5011479;28;20092;-74
2024/01/18 11:59:56;;;;;;;0.00;0.00;;;3.40;99.90;;;;;;5008952;28;20045;-74
2024/01/18 12:02:22;;;;;;;0.00;0.00;;;3.40;99.90;;;;;;5012837;28;20582;-74
2024/01/18 12:04:48;;;;;;;0.00;0.00;;;3.50;99.90;;;;;;5012541;28;20440;-73
2024/01/18 12:07:15;;;;;;;0.00;0.00;;;3.40;99.90;;;;;;5026715;28;20041;-75
2024/01/18 12:09:42;;;;;;;1.13;0.00;;;3.40;99.90;;;;;;5011181;28;20465;-75
2024/01/18 12:12:09;;;;;;;0.00;0.00;;;3.40;99.90;;;;;;4991359;28;20504;-75
2024/01/18 12:14:43;;;;;;;0.00;0.00;;;3.20;99.90;;;;;;5011345;28;20037;-75
2024/01/18 12:17:14;;;;;;;0.37;0.27;;;3.10;99.90;;;;;;5003251;28;20460;-75
2024/01/18 12:19:41;;;;;;;1.85;0.17;;;3.00;99.90;;;;;;5025049;28;20037;-75
2024/01/18 12:22:10;;;;;;;0.17;0.08;;;2.80;99.90;;;;;;5009926;28;20429;-75
2024/01/18 12:24:36;;;;;;;0.00;0.00;;;2.80;99.90;;;;;;5008505;28;20327;-75
2024/01/18 12:27:04;;;;;;;0.00;0.00;;;2.70;99.90;;;;;;5009722;28;20034;-75
2024/01/18 12:29:35;;;;;;;0.10;0.05;;;2.60;99.90;;;;;;5010211;28;20060;-75
2024/01/18 12:32:02;;;;;;;1.40;0.20;;;2.60;99.90;;;;;;5011785;28;20045;-75
2024/01/18 12:34:29;;;;;;;0.00;0.00;;;2.50;99.90;;;;;;5001032;28;20069;-75
2024/01/18 12:36:56;;;;;;;0.00;0.00;;;2.50;99.90;;;;;;5001214;28;20041;-75
2024/01/18 12:39:22;;;;;;;0.00;0.00;;;2.50;99.90;;;;;;5009767;28;20110;-75
2024/01/18 12:41:53;;;;;;;0.00;0.00;;;2.50;99.90;;;;;;5008512;28;20493;-75
2024/01/18 12:44:20;;;;;;;0.10;0.10;;;2.50;99.90;;;;;;5010035;28;20057;-75